Time;durP1;ratioP1;P1;durP2;ratioP2;P2;SDS_P1;SDS_P2;PMS_P1;PMS_P2;Temp;Humidity;BMP_temperature;BMP_pressure;BME280_temperature;BME280_humidity;BME280_pressure;Samples;Min_cycle;Max_cycle;Signal;HPM_P1;HPM_P2
2022/09/14 00:01:27;;;;;;;8.27;2.65;;;;;;;17.99;77.54;100750.94;5059425;28;20037;-59
2022/09/14 00:03:59;;;;;;;10.32;2.33;;;;;;;17.99;77.42;100749.00;5072542;28;20049;-60
2022/09/14 00:06:29;;;;;;;9.90;2.15;;;;;;;17.97;77.46;100742.19;5055705;28;20037;-58
2022/09/14 00:08:59;;;;;;;8.70;2.15;;;;;;;17.96;76.70;100740.56;5063982;28;20090;-60
2022/09/14 00:11:30;;;;;;;7.88;1.85;;;;;;;17.93;77.28;100741.19;5069880;28;20142;-56
2022/09/14 00:13:59;;;;;;;8.52;2.38;;;;;;;17.90;77.35;100731.63;5072706;28;20040;-60
2022/09/14 00:16:32;;;;;;;12.25;2.15;;;;;;;17.89;77.13;100729.97;5072165;28;20032;-60
2022/09/14 00:19:05;;;;;;;7.93;2.53;;;;;;;17.84;77.00;100727.38;5071090;28;20117;-61
2022/09/14 00:21:37;;;;;;;10.88;2.13;;;;;;;17.78;77.79;100731.41;5055542;28;20043;-60
2022/09/14 00:24:06;;;;;;;9.07;2.35;;;;;;;17.75;77.54;100723.75;5071332;28;20494;-61
2022/09/14 00:26:34;;;;;;;13.30;2.30;;;;;;;17.72;78.33;100719.69;5071415;28;20044;-60
2022/09/14 00:29:03;;;;;;;6.40;2.30;;;;;;;17.62;77.91;100726.28;5068346;28;20045;-55
2022/09/14 00:31:33;;;;;;;11.25;2.78;;;;;;;17.63;79.05;100714.16;5070575;28;20041;-57
2022/09/14 00:34:02;;;;;;;12.98;2.17;;;;;;;17.57;78.75;100720.13;5075178;28;20510;-59
2022/09/14 00:36:31;;;;;;;6.03;2.00;;;;;;;17.55;78.51;100709.41;5075378;28;20045;-60
2022/09/14 00:38:59;;;;;;;8.18;2.42;;;;;;;17.53;79.15;100708.09;5068789;28;20053;-61
2022/09/14 00:41:30;;;;;;;9.77;2.38;;;;;;;17.40;79.14;100710.63;5071621;28;20044;-60
2022/09/14 00:44:05;;;;;;;7.95;2.08;;;;;;;17.39;79.57;100703.53;5075761;28;20097;-59
2022/09/14 00:46:56;;;;;;;7.75;2.20;;;;;;;17.38;79.55;100699.13;5075277;28;20521;-60
2022/09/14 00:49:32;;;;;;;8.73;2.20;;;;;;;17.38;79.86;100693.63;5069232;28;20055;-58
2022/09/14 00:52:15;;;;;;;8.40;2.50;;;;;;;17.38;79.71;100693.63;5072538;28;20406;-57
2022/09/14 00:54:49;;;;;;;10.52;2.53;;;;;;;17.45;79.55;100696.72;5066925;28;20040;-60
2022/09/14 00:57:17;;;;;;;10.20;2.45;;;;;;;17.46;80.14;100683.75;5074451;28;20516;-60
2022/09/14 00:59:47;;;;;;;10.05;2.70;;;;;;;17.40;80.22;100685.03;5075575;28;20091;-58
2022/09/14 01:02:15;;;;;;;10.82;2.53;;;;;;;17.36;80.56;100679.34;5060795;28;20037;-60
2022/09/14 01:04:43;;;;;;;11.77;2.72;;;;;;;17.34;79.82;100676.13;5067232;28;20045;-56
2022/09/14 01:07:44;;;;;;;9.63;2.47;;;;;;;17.35;80.88;100671.41;5060464;28;20074;-59
2022/09/14 01:10:39;;;;;;;9.95;2.60;;;;;;;17.30;80.77;100669.63;5065532;28;20118;-59
2022/09/14 01:13:07;;;;;;;9.82;2.15;;;;;;;17.32;81.37;100672.03;5075260;28;20138;-56
2022/09/14 01:15:40;;;;;;;7.10;2.00;;;;;;;17.40;81.28;100666.56;5068675;28;20556;-60
2022/09/14 01:18:39;;;;;;;9.77;2.53;;;;;;;17.43;81.11;100663.16;5067131;28;20041;-60
2022/09/14 01:21:10;;;;;;;11.40;2.63;;;;;;;17.38;81.09;100660.56;5046354;28;20097;-56
2022/09/14 01:24:11;;;;;;;9.65;2.53;;;;;;;17.20;81.66;100656.13;5073349;28;20090;-57
2022/09/14 01:26:57;;;;;;;8.88;2.20;;;;;;;17.00;82.10;100657.47;5073196;28;20127;-58
2022/09/14 01:29:31;;;;;;;7.18;2.22;;;;;;;17.04;83.32;100645.50;5073826;28;20567;-58
2022/09/14 01:32:19;;;;;;;10.02;2.85;;;;;;;17.17;83.62;100649.31;5073746;28;20044;-58
2022/09/14 01:35:15;;;;;;;8.52;2.53;;;;;;;17.19;83.56;100651.72;5072389;28;20044;-56
2022/09/14 01:38:03;;;;;;;8.95;2.65;;;;;;;17.08;83.56;100651.22;5065463;28;20044;-54
2022/09/14 01:40:43;;;;;;;10.27;2.50;;;;;;;16.85;84.59;100650.41;5072606;28;20036;-55
2022/09/14 01:43:14;;;;;;;12.25;2.38;;;;;;;16.87;85.68;100648.16;5074550;28;20048;-57
2022/09/14 01:45:47;;;;;;;8.07;2.72;;;;;;;16.77;85.26;100645.66;5063968;28;20059;-58
2022/09/14 01:48:20;;;;;;;7.53;2.20;;;;;;;16.86;86.22;100651.22;5073551;28;20044;-55
2022/09/14 01:50:51;;;;;;;9.60;2.20;;;;;;;16.83;85.33;100645.22;5058095;28;20045;-60
2022/09/14 01:53:26;;;;;;;9.55;2.58;;;;;;;16.85;86.40;100642.16;5067807;28;20452;-58
2022/09/14 01:55:53;;;;;;;11.88;2.40;;;;;;;16.81;86.22;100643.91;5073760;28;20046;-58
2022/09/14 01:58:34;;;;;;;6.90;2.28;;;;;;;16.80;86.55;100642.31;5074570;28;20040;-60
2022/09/14 02:01:03;;;;;;;8.43;2.45;;;;;;;16.85;86.30;100642.16;5065854;28;20049;-60
2022/09/14 02:03:42;;;;;;;7.57;2.20;;;;;;;16.87;86.43;100637.16;5088561;28;20394;-58
2022/09/14 02:06:13;;;;;;;8.95;2.55;;;;;;;16.86;86.58;100627.28;5073804;28;20048;-58
2022/09/14 02:08:41;;;;;;;7.35;2.20;;;;;;;16.68;87.86;100625.53;5074023;28;20059;-55
2022/09/14 02:11:09;;;;;;;11.82;3.08;;;;;;;16.68;88.83;100636.53;5054305;28;20494;-56
2022/09/14 02:13:36;;;;;;;6.78;2.20;;;;;;;16.71;89.26;100625.69;5069910;28;20128;-54
2022/09/14 02:16:04;;;;;;;9.43;2.63;;;;;;;16.77;89.37;100618.94;5069306;28;20565;-58
2022/09/14 02:18:33;;;;;;;12.38;2.53;;;;;;;16.72;89.59;100626.53;5063740;28;20044;-60
2022/09/14 02:21:13;;;;;;;5.78;2.30;;;;;;;16.76;90.36;100638.50;5073588;28;20127;-57
2022/09/14 02:23:41;;;;;;;6.70;2.03;;;;;;;16.83;89.95;100634.22;5064570;28;20053;-55
2022/09/14 02:26:09;;;;;;;9.57;2.33;;;;;;;16.89;88.88;100634.91;5073101;28;20085;-55
2022/09/14 02:28:37;;;;;;;14.00;3.00;;;;;;;16.90;89.21;100636.53;5072872;28;20040;-55
2022/09/14 02:31:40;;;;;;;8.48;2.45;;;;;;;16.81;89.46;100642.00;5073786;28;20052;-52
2022/09/14 02:34:14;;;;;;;9.98;2.53;;;;;;;16.76;90.46;100644.00;5012027;28;20049;-55
2022/09/14 02:37:01;;;;;;;10.30;2.45;;;;;;;16.78;90.65;100650.84;5053418;28;20117;-55
2022/09/14 02:39:32;;;;;;;10.13;2.50;;;;;;;16.76;90.72;100649.50;5072729;28;20396;-53
2022/09/14 02:42:14;;;;;;;9.38;2.92;;;;;;;16.72;91.03;100643.03;5064741;28;20045;-55
2022/09/14 02:45:06;;;;;;;7.82;2.90;;;;;;;16.67;91.35;100645.88;5069829;28;20048;-55
2022/09/14 02:48:11;;;;;;;11.18;2.67;;;;;;;16.63;91.78;100640.22;5072584;28;20036;-57
2022/09/14 02:50:47;;;;;;;6.93;2.70;;;;;;;16.54;92.77;100631.91;5064950;28;20548;-57
2022/09/14 02:53:33;;;;;;;9.10;2.38;;;;;;;16.53;92.99;100634.97;5059202;28;20052;-52
2022/09/14 02:56:04;;;;;;;13.45;2.88;;;;;;;16.46;93.16;100640.91;5066888;28;20037;-57
2022/09/14 02:58:40;;;;;;;10.05;2.38;;;;;;;16.38;94.46;100634.22;5072418;28;20117;-54
2022/09/14 03:01:10;;;;;;;7.70;2.40;;;;;;;16.38;95.12;100636.16;5072423;28;20063;-55
2022/09/14 03:03:38;;;;;;;6.22;2.00;;;;;;;16.41;94.99;100632.78;5070106;28;20040;-55
2022/09/14 03:06:06;;;;;;;8.40;2.35;;;;;;;16.37;95.95;100638.06;5063385;28;20405;-54
2022/09/14 03:08:34;;;;;;;10.25;2.83;;;;;;;16.35;96.22;100634.81;5069454;28;20044;-54
2022/09/14 03:11:02;;;;;;;9.52;2.53;;;;;;;16.40;96.67;100631.97;5058336;28;20040;-56
2022/09/14 03:13:30;;;;;;;8.48;2.00;;;;;;;16.45;96.55;100633.78;5073102;28;20044;-53
2022/09/14 03:15:57;;;;;;;7.75;2.60;;;;;;;16.52;96.68;100627.84;5065459;28;20114;-55
2022/09/14 03:18:25;;;;;;;13.32;2.58;;;;;;;16.59;95.87;100628.22;5072100;28;20134;-55
2022/09/14 03:20:53;;;;;;;10.02;2.38;;;;;;;16.65;95.88;100623.41;5073175;28;20044;-54
2022/09/14 03:23:20;;;;;;;8.73;2.70;;;;;;;16.60;95.47;100625.16;5071066;28;20037;-54
2022/09/14 03:25:48;;;;;;;6.90;2.45;;;;;;;16.57;95.46;100624.94;5073248;28;20460;-58
2022/09/14 03:28:16;;;;;;;9.25;2.58;;;;;;;16.48;95.58;100616.66;5065960;28;20066;-60
2022/09/14 03:30:44;;;;;;;8.88;2.78;;;;;;;16.43;95.58;100608.53;5071300;28;20048;-58
2022/09/14 03:33:14;;;;;;;7.63;2.70;;;;;;;16.36;96.31;100608.16;5072909;28;20051;-56
2022/09/14 03:35:41;;;;;;;7.97;2.50;;;;;;;16.34;97.31;100605.72;5071929;28;20042;-57
2022/09/14 03:38:09;;;;;;;14.68;3.00;;;;;;;16.34;97.49;100604.91;5071736;28;20049;-54
2022/09/14 03:40:38;;;;;;;6.93;2.42;;;;;;;16.37;97.30;100610.59;5066034;28;20454;-59
2022/09/14 03:43:06;;;;;;;8.38;2.55;;;;;;;16.33;97.60;100606.00;5065974;28;20055;-59
2022/09/14 03:45:36;;;;;;;8.98;2.30;;;;;;;16.40;97.64;100598.16;5071483;28;20040;-57
2022/09/14 03:48:04;;;;;;;7.13;2.33;;;;;;;16.48;97.49;100585.59;5073313;28;20045;-59
2022/09/14 03:50:32;;;;;;;7.65;2.97;;;;;;;16.51;97.43;100574.78;5071480;28;20045;-56
2022/09/14 03:53:00;;;;;;;7.32;2.38;;;;;;;16.53;96.57;100574.47;5061015;28;20044;-57
2022/09/14 03:55:28;;;;;;;11.13;2.67;;;;;;;16.48;96.62;100578.16;5071516;28;20041;-58
2022/09/14 03:57:55;;;;;;;11.68;2.58;;;;;;;16.44;96.03;100570.84;5071779;28;20044;-55
2022/09/14 04:00:23;;;;;;;7.65;2.42;;;;;;;16.43;96.74;100570.03;5072819;28;20045;-59
2022/09/14 04:02:51;;;;;;;6.32;2.35;;;;;;;16.47;96.41;100573.75;5063674;28;20082;-56
2022/09/14 04:05:19;;;;;;;8.50;2.45;;;;;;;16.54;96.29;100571.38;5071966;28;20043;-55
2022/09/14 04:07:48;;;;;;;10.18;2.88;;;;;;;16.51;96.02;100566.53;5075238;28;20060;-59
2022/09/14 04:10:16;;;;;;;7.03;2.30;;;;;;;16.46;96.26;100574.91;5062756;28;20465;-55
2022/09/14 04:12:44;;;;;;;8.70;2.63;;;;;;;16.42;96.67;100567.59;5073750;28;20054;-56
2022/09/14 04:15:11;;;;;;;8.13;2.30;;;;;;;16.38;97.38;100570.97;5075436;28;20542;-55
2022/09/14 04:17:39;;;;;;;6.25;1.98;;;;;;;16.38;97.07;100568.22;5069460;28;20055;-55
2022/09/14 04:20:07;;;;;;;11.55;2.75;;;;;;;16.39;97.24;100555.28;5064993;28;20052;-55
2022/09/14 04:22:35;;;;;;;12.88;2.88;;;;;;;16.42;96.33;100549.16;5059793;28;20502;-56
2022/09/14 04:25:03;;;;;;;8.07;2.60;;;;;;;16.42;95.28;100548.34;5063340;28;20045;-58
2022/09/14 04:27:31;;;;;;;10.18;2.45;;;;;;;16.38;96.05;100550.91;5073901;28;20090;-56
2022/09/14 04:29:58;;;;;;;6.97;2.35;;;;;;;16.36;96.82;100548.47;5073435;28;20036;-58
2022/09/14 04:32:27;;;;;;;7.63;2.38;;;;;;;16.38;97.11;100546.22;5066384;28;20040;-57
2022/09/14 04:35:00;;;;;;;8.75;2.70;;;;;;;16.32;96.55;100552.16;5062667;28;20417;-59
2022/09/14 04:37:31;;;;;;;9.93;2.20;;;;;;;16.22;97.20;100555.16;5075168;28;20037;-55
2022/09/14 04:39:59;;;;;;;6.13;2.13;;;;;;;16.21;97.23;100548.03;5076396;28;20094;-55
2022/09/14 04:42:28;;;;;;;10.55;3.05;;;;;;;16.21;97.07;100550.78;5063014;28;20033;-59
2022/09/14 04:44:55;;;;;;;7.50;2.17;;;;;;;16.15;97.83;100548.16;5065331;28;20066;-56
2022/09/14 04:47:23;;;;;;;6.75;2.03;;;;;;;16.18;97.85;100550.28;5075797;28;20048;-59
2022/09/14 04:49:51;;;;;;;6.22;2.05;;;;;;;16.24;97.08;100545.50;5057251;28;20180;-55
2022/09/14 04:52:19;;;;;;;10.20;2.15;;;;;;;16.30;96.91;100548.91;5075814;28;20559;-56
2022/09/14 04:54:46;;;;;;;6.28;2.03;;;;;;;16.35;96.64;100540.53;5071491;28;20126;-59
2022/09/14 04:57:14;;;;;;;8.10;2.47;;;;;;;16.41;96.42;100539.28;5075876;28;20040;-56
2022/09/14 04:59:41;;;;;;;6.45;2.17;;;;;;;16.42;95.81;100531.84;5075676;28;20048;-58
2022/09/14 05:02:09;;;;;;;7.28;2.00;;;;;;;16.38;95.42;100532.47;5073928;28;20041;-56
2022/09/14 05:04:37;;;;;;;7.00;2.05;;;;;;;16.31;95.42;100528.56;5074345;28;20040;-55
2022/09/14 05:07:05;;;;;;;10.65;2.38;;;;;;;16.28;96.12;100531.91;5073225;28;20401;-51
2022/09/14 05:09:32;;;;;;;12.20;2.67;;;;;;;16.25;96.02;100529.78;5068988;28;20053;-54
2022/09/14 05:12:00;;;;;;;11.98;2.90;;;;;;;16.18;96.13;100535.72;5075476;28;20050;-54
2022/09/14 05:14:27;;;;;;;6.05;2.33;;;;;;;16.16;96.76;100527.81;5073814;28;20052;-52
2022/09/14 05:17:00;;;;;;;8.15;2.50;;;;;;;16.22;96.66;100524.94;5074196;28;20036;-54
2022/09/14 05:19:27;;;;;;;4.78;2.08;;;;;;;16.24;97.16;100526.25;5074804;28;20032;-51
2022/09/14 05:21:55;;;;;;;8.35;2.85;;;;;;;16.22;97.51;100522.19;5067937;28;20041;-54
2022/09/14 05:24:23;;;;;;;9.68;2.42;;;;;;;16.13;97.99;100533.91;5074879;28;20048;-56
2022/09/14 05:26:52;;;;;;;6.40;2.35;;;;;;;16.07;99.33;100526.13;5075199;28;20052;-55
2022/09/14 05:29:28;;;;;;;5.95;2.38;;;;;;;15.98;99.87;100531.53;5072497;28;20036;-56
2022/09/14 05:31:56;;;;;;;7.55;2.20;;;;;;;15.92;99.68;100528.13;5075040;28;20101;-56
2022/09/14 05:34:23;;;;;;;6.95;2.38;;;;;;;15.87;99.63;100530.16;5073778;28;20051;-54
2022/09/14 05:36:52;;;;;;;6.88;2.15;;;;;;;15.77;99.90;100532.00;5074472;28;20044;-58
2022/09/14 05:39:21;;;;;;;10.13;2.38;;;;;;;15.74;100.00;100540.88;5072512;28;20040;-54
2022/09/14 05:41:50;;;;;;;7.38;2.13;;;;;;;15.77;100.00;100534.75;5063754;28;20048;-53
2022/09/14 05:44:18;;;;;;;8.52;2.50;;;;;;;15.86;100.00;100536.78;5074221;28;20098;-54
2022/09/14 05:46:45;;;;;;;6.43;2.20;;;;;;;15.87;100.00;100533.72;5076118;28;20498;-53
2022/09/14 05:49:13;;;;;;;7.53;2.30;;;;;;;15.87;100.00;100544.69;4717370;28;10000122;-54
2022/09/14 05:51:41;;;;;;;6.20;2.00;;;;;;;15.85;100.00;100549.72;5057572;28;20052;-56
2022/09/14 05:54:10;;;;;;;8.20;2.40;;;;;;;15.89;100.00;100544.41;5071312;28;20044;-57
2022/09/14 05:56:38;;;;;;;8.02;2.60;;;;;;;15.93;100.00;100545.41;5072368;28;20044;-56
2022/09/14 05:59:05;;;;;;;6.35;2.40;;;;;;;15.95;100.00;100543.16;5071072;28;20042;-56
2022/09/14 06:01:33;;;;;;;6.70;1.95;;;;;;;15.94;100.00;100552.53;5057196;28;20045;-56
2022/09/14 06:04:02;;;;;;;8.35;2.90;;;;;;;15.96;100.00;100553.84;5053141;28;20044;-51
2022/09/14 06:06:31;;;;;;;9.48;2.25;;;;;;;15.96;100.00;100555.78;5068043;28;20518;-50
2022/09/14 06:08:59;;;;;;;8.55;2.53;;;;;;;15.95;100.00;100551.41;5050371;28;20057;-52
2022/09/14 06:11:29;;;;;;;6.57;2.22;;;;;;;15.99;100.00;100549.66;5050899;28;20049;-52
2022/09/14 06:13:58;;;;;;;7.03;2.33;;;;;;;16.02;100.00;100549.03;5069516;28;20041;-54
2022/09/14 06:16:27;;;;;;;5.50;2.38;;;;;;;16.07;100.00;100537.94;5065239;28;20040;-50
2022/09/14 06:18:55;;;;;;;6.20;2.17;;;;;;;16.11;100.00;100547.16;5065566;28;20036;-50
2022/09/14 06:21:29;;;;;;;6.03;1.92;;;;;;;16.16;100.00;100537.97;5052302;28;20045;-54
2022/09/14 06:23:57;;;;;;;12.57;2.67;;;;;;;16.20;100.00;100547.22;5059016;28;20053;-54
2022/09/14 06:26:25;;;;;;;7.25;2.25;;;;;;;16.22;100.00;100541.44;5067379;28;21585;-52
2022/09/14 06:28:53;;;;;;;6.35;2.00;;;;;;;16.24;100.00;100550.19;5057174;28;20079;-53
2022/09/14 06:31:24;;;;;;;7.30;2.33;;;;;;;16.23;100.00;100543.03;5070493;28;20391;-53
2022/09/14 06:33:52;;;;;;;8.07;2.45;;;;;;;16.10;99.89;100545.53;5069485;28;20048;-51
2022/09/14 06:36:25;;;;;;;8.25;2.42;;;;;;;15.94;100.00;100549.78;5070745;28;20470;-52
2022/09/14 06:38:53;;;;;;;9.43;2.65;;;;;;;15.85;100.00;100546.97;5069317;28;20053;-50
2022/09/14 06:41:25;;;;;;;7.80;2.70;;;;;;;15.80;100.00;100546.25;5058545;28;20453;-52
2022/09/14 06:43:56;;;;;;;6.38;2.05;;;;;;;15.85;100.00;100548.88;5070452;28;20090;-51
2022/09/14 06:46:27;;;;;;;4.65;1.88;;;;;;;15.94;100.00;100547.03;5069058;28;20520;-52
2022/09/14 06:48:56;;;;;;;9.73;2.60;;;;;;;15.94;100.00;100538.78;5058654;28;20044;-55
2022/09/14 06:51:26;;;;;;;12.77;3.30;;;;;;;15.96;100.00;100533.78;5062648;28;20461;-55
2022/09/14 06:53:58;;;;;;;10.40;2.45;;;;;;;16.00;100.00;100534.81;5067834;28;20060;-50
2022/09/14 06:56:36;;;;;;;9.13;2.45;;;;;;;15.96;100.00;100533.78;5052698;28;20525;-53
2022/09/14 06:59:06;;;;;;;7.65;2.53;;;;;;;15.89;100.00;100527.91;5065521;28;20576;-55
2022/09/14 07:01:34;;;;;;;8.27;2.22;;;;;;;15.84;100.00;100537.09;5051184;28;20070;-52
2022/09/14 07:04:02;;;;;;;10.40;2.33;;;;;;;15.82;100.00;100539.31;5068175;28;20101;-51
2022/09/14 07:06:37;;;;;;;9.40;2.40;;;;;;;15.77;100.00;100548.50;5063426;28;20037;-50
2022/09/14 07:09:05;;;;;;;8.32;2.20;;;;;;;15.62;100.00;100543.31;5052468;28;20053;-52
2022/09/14 07:11:33;;;;;;;11.95;2.58;;;;;;;15.67;100.00;100539.66;5059242;28;20044;-52
2022/09/14 07:14:01;;;;;;;9.88;2.80;;;;;;;15.77;100.00;100540.25;5069947;28;20431;-55
2022/09/14 07:16:30;;;;;;;8.52;2.55;;;;;;;15.83;100.00;100534.66;5069628;28;20045;-49
2022/09/14 07:19:02;;;;;;;7.53;2.28;;;;;;;15.85;100.00;100535.16;5048737;28;20037;-49
2022/09/14 07:21:31;;;;;;;8.02;2.40;;;;;;;15.85;100.00;100532.41;5074294;28;20494;-52
2022/09/14 07:23:58;;;;;;;8.85;2.88;;;;;;;15.86;100.00;100534.03;5071350;28;20066;-51
2022/09/14 07:26:28;;;;;;;7.97;2.97;;;;;;;15.78;100.00;100527.34;5067595;28;20044;-53
2022/09/14 07:29:00;;;;;;;7.50;2.70;;;;;;;15.62;100.00;100524.09;5072926;28;20036;-49
2022/09/14 07:31:30;;;;;;;6.60;2.40;;;;;;;15.51;100.00;100526.28;5066679;28;20070;-50
2022/09/14 07:34:00;;;;;;;8.10;2.63;;;;;;;15.56;100.00;100525.31;5072899;28;20040;-50
2022/09/14 07:36:29;;;;;;;8.93;2.53;;;;;;;15.61;100.00;100522.50;5056198;28;20044;-53
2022/09/14 07:39:05;;;;;;;8.00;2.60;;;;;;;15.64;100.00;100515.56;5063672;28;20049;-51
2022/09/14 07:41:33;;;;;;;7.78;2.08;;;;;;;15.65;100.00;100523.47;5055783;28;20048;-53
2022/09/14 07:44:03;;;;;;;8.98;2.35;;;;;;;15.63;100.00;100522.16;5069741;28;20045;-49
2022/09/14 07:46:37;;;;;;;8.32;2.17;;;;;;;15.60;100.00;100517.28;5071116;28;20093;-51
2022/09/14 07:49:05;;;;;;;7.40;2.08;;;;;;;15.62;100.00;100517.81;5070374;28;20106;-54
2022/09/14 07:51:34;;;;;;;9.95;3.58;;;;;;;15.63;100.00;100513.91;5060466;28;20046;-51
2022/09/14 07:54:02;;;;;;;7.70;2.30;;;;;;;15.63;100.00;100517.47;5061539;28;20044;-50
2022/09/14 07:56:30;;;;;;;8.60;2.42;;;;;;;15.61;100.00;100513.41;5059380;28;20040;-51
2022/09/14 07:58:59;;;;;;;9.70;2.95;;;;;;;15.61;100.00;100511.50;5062692;28;20110;-50
2022/09/14 08:01:47;;;;;;;7.40;2.63;;;;;;;15.61;100.00;100511.50;5030520;28;20043;-50
2022/09/14 08:04:15;;;;;;;9.65;2.10;;;;;;;15.65;100.00;100509.75;5070823;28;20036;-52
2022/09/14 08:06:43;;;;;;;5.90;2.33;;;;;;;15.70;100.00;100509.66;5065983;28;20506;-52
2022/09/14 08:09:11;;;;;;;7.68;2.90;;;;;;;15.71;100.00;100522.28;5065276;28;20487;-50
2022/09/14 08:11:38;;;;;;;8.65;2.65;;;;;;;15.66;100.00;100519.63;5054004;28;20041;-51
2022/09/14 08:14:10;;;;;;;8.95;2.70;;;;;;;15.56;100.00;100508.84;5068487;28;20415;-51
2022/09/14 08:16:39;;;;;;;7.75;2.72;;;;;;;15.56;100.00;100508.84;5056501;28;20037;-53
2022/09/14 08:19:12;;;;;;;10.55;2.80;;;;;;;15.61;100.00;100511.50;5068848;28;20048;-55
2022/09/14 08:21:39;;;;;;;9.52;3.05;;;;;;;15.68;100.00;100509.16;5068303;28;20410;-54
2022/09/14 08:24:15;;;;;;;7.60;2.85;;;;;;;15.74;100.00;100518.91;5084700;28;20036;-51
2022/09/14 08:26:43;;;;;;;7.78;2.80;;;;;;;15.69;100.00;100508.00;5070680;28;20074;-55
2022/09/14 08:29:14;;;;;;;8.68;3.03;;;;;;;15.61;100.00;100507.91;5067129;28;20036;-50
2022/09/14 08:31:44;;;;;;;10.55;3.40;;;;;;;15.60;100.00;100507.13;5069315;28;20048;-53
2022/09/14 08:34:13;;;;;;;7.20;2.72;;;;;;;15.55;100.00;100508.03;5071253;28;20048;-52
2022/09/14 08:36:42;;;;;;;10.32;2.95;;;;;;;15.57;100.00;100505.00;5070287;28;20041;-51
2022/09/14 08:39:12;;;;;;;7.10;2.95;;;;;;;15.61;100.00;100503.25;5068484;28;20051;-53
2022/09/14 08:41:46;;;;;;;8.20;2.97;;;;;;;15.67;100.00;100504.75;5070750;28;20037;-55
2022/09/14 08:44:22;;;;;;;8.07;2.88;;;;;;;15.64;100.00;100505.38;5071940;28;20037;-53
2022/09/14 08:47:01;;;;;;;10.27;3.47;;;;;;;15.72;100.00;100501.91;5065654;28;20047;-54
2022/09/14 08:49:41;;;;;;;6.97;2.70;;;;;;;15.82;100.00;100502.81;5066706;28;20040;-52
2022/09/14 08:52:21;;;;;;;10.00;3.40;;;;;;;15.85;100.00;100510.41;5064664;28;20536;-55
2022/09/14 08:54:53;;;;;;;7.18;3.00;;;;;;;15.84;100.00;100514.31;5071638;28;20051;-54
2022/09/14 08:57:49;;;;;;;6.93;2.97;;;;;;;15.70;100.00;100519.84;5064671;28;20028;-52
2022/09/14 09:00:24;;;;;;;7.30;2.80;;;;;;;15.60;100.00;100512.59;5057257;28;20044;-50
2022/09/14 09:03:26;;;;;;;8.93;3.22;;;;;;;15.62;100.00;100517.81;5073737;28;20048;-51
2022/09/14 09:06:04;;;;;;;9.30;3.17;;;;;;;15.60;100.00;100526.34;5073732;28;20040;-55
2022/09/14 09:08:35;;;;;;;7.40;3.25;;;;;;;15.65;100.00;100525.41;5066904;28;20548;-53
2022/09/14 09:11:06;;;;;;;9.55;2.83;;;;;;;15.72;100.00;100523.91;5066698;28;20051;-56
2022/09/14 09:13:35;;;;;;;10.20;3.00;;;;;;;15.80;100.00;100527.03;5062783;28;20072;-53
2022/09/14 09:16:05;;;;;;;8.13;2.60;;;;;;;15.81;100.00;100526.72;5062413;28;20493;-52
2022/09/14 09:18:45;;;;;;;9.95;2.60;;;;;;;15.83;100.00;100526.44;5070873;28;20089;-52
2022/09/14 09:21:21;;;;;;;11.02;3.00;;;;;;;15.79;100.00;100525.41;5066914;28;20047;-54
2022/09/14 09:23:49;;;;;;;9.73;3.00;;;;;;;15.71;100.00;100529.72;5085920;28;20040;-52
2022/09/14 09:26:29;;;;;;;7.90;2.40;;;;;;;15.70;100.00;100528.88;5068556;28;20051;-55
2022/09/14 09:29:00;;;;;;;9.38;2.90;;;;;;;15.66;100.00;100514.13;5072466;28;20060;-55
2022/09/14 09:31:33;;;;;;;8.30;2.83;;;;;;;15.64;100.00;100527.34;5070475;28;20410;-50
2022/09/14 09:34:26;;;;;;;10.25;3.03;;;;;;;15.69;100.00;100518.19;5058213;28;20056;-52
2022/09/14 09:37:13;;;;;;;14.27;3.58;;;;;;;15.76;100.00;100524.09;5067597;28;20053;-52
2022/09/14 09:39:41;;;;;;;8.35;2.72;;;;;;;15.71;100.00;100522.28;5043234;28;20093;-52
2022/09/14 09:42:21;;;;;;;7.75;2.65;;;;;;;15.61;100.00;100516.16;5071284;28;20059;-53
2022/09/14 09:45:02;;;;;;;6.40;2.55;;;;;;;15.61;100.00;100516.16;5065670;28;20086;-54
2022/09/14 09:47:36;;;;;;;7.00;2.30;;;;;;;15.64;100.00;100521.88;5071662;28;20071;-52
2022/09/14 09:50:13;;;;;;;8.25;2.85;;;;;;;15.64;100.00;100521.88;5072067;28;20047;-55
2022/09/14 09:52:58;;;;;;;7.20;2.30;;;;;;;15.61;100.00;100517.00;5062520;28;20049;-54
2022/09/14 09:55:38;;;;;;;8.90;2.95;;;;;;;15.63;100.00;100519.41;5070832;28;20068;-53
2022/09/14 09:58:26;;;;;;;6.13;2.45;;;;;;;15.59;100.00;100511.00;5069667;28;20040;-52
2022/09/14 10:01:06;;;;;;;8.32;2.45;;;;;;;15.62;100.00;100506.81;5073628;28;20569;-51
2022/09/14 10:03:39;;;;;;;6.97;2.63;;;;;;;15.67;100.00;100513.00;5063030;28;20041;-52
2022/09/14 10:06:09;;;;;;;7.88;2.45;;;;;;;15.71;100.00;100500.31;5066422;28;20040;-50
2022/09/14 10:08:43;;;;;;;8.40;2.70;;;;;;;15.74;100.00;100499.69;5072436;28;20448;-54
2022/09/14 10:11:27;;;;;;;8.90;2.88;;;;;;;15.74;100.00;100494.19;5068990;28;20029;-54
2022/09/14 10:13:55;;;;;;;5.53;2.42;;;;;;;15.75;100.00;100487.59;5058810;28;20045;-50
2022/09/14 10:16:28;;;;;;;13.75;3.90;;;;;;;15.77;100.00;100490.00;5073132;28;20044;-52
2022/09/14 10:18:58;;;;;;;10.63;4.05;;;;;;;15.77;100.00;100488.06;5069137;28;20039;-49
2022/09/14 10:21:25;;;;;;;10.80;3.30;;;;;;;15.82;100.00;100484.38;5059709;28;20041;-53
2022/09/14 10:24:16;;;;;;;10.85;3.35;;;;;;;15.82;100.00;100494.56;5085972;28;20390;-52
2022/09/14 10:26:44;;;;;;;8.50;3.35;;;;;;;15.77;100.00;100488.06;5066491;28;20085;-53
2022/09/14 10:29:26;;;;;;;8.93;3.50;;;;;;;15.74;100.00;100483.19;5070214;28;20040;-54
2022/09/14 10:32:18;;;;;;;12.93;2.97;;;;;;;15.75;100.00;100484.84;5056130;28;20411;-51
2022/09/14 10:34:45;;;;;;;11.27;3.90;;;;;;;15.77;100.00;100488.06;5067362;28;20044;-51
2022/09/14 10:37:18;;;;;;;13.23;5.35;;;;;;;15.82;100.00;100492.63;5067151;28;20040;-51
2022/09/14 10:39:56;;;;;;;12.00;3.70;;;;;;;15.88;100.00;100493.34;5056857;28;20040;-51
2022/09/14 10:42:34;;;;;;;10.57;3.50;;;;;;;15.94;100.00;100497.56;5067333;28;20044;-50
2022/09/14 10:45:38;;;;;;;10.80;4.07;;;;;;;16.01;100.00;100502.63;5067122;28;20047;-55
2022/09/14 10:48:06;;;;;;;10.47;3.10;;;;;;;16.03;100.00;100501.19;4358255;28;10000705;-54
2022/09/14 10:51:08;;;;;;;7.65;3.25;;;;;;;16.04;100.00;100502.81;5069903;28;20295;-53
2022/09/14 10:53:56;;;;;;;7.80;3.25;;;;;;;16.02;100.00;100496.84;5064596;28;20091;-56
2022/09/14 10:56:33;;;;;;;7.82;3.25;;;;;;;16.04;100.00;100496.50;5054575;28;20048;-52
2022/09/14 10:59:30;;;;;;;12.50;5.05;;;;;;;16.10;100.00;100493.31;5065504;28;20102;-51
2022/09/14 11:02:10;;;;;;;12.88;4.50;;;;;;;16.15;100.00;100498.69;5068067;28;20048;-53
2022/09/14 11:05:03;;;;;;;8.20;3.20;;;;;;;16.13;100.00;100492.69;5058859;28;20072;-52
2022/09/14 11:07:40;;;;;;;9.68;3.28;;;;;;;16.12;100.00;100485.56;5060489;28;20384;-50
2022/09/14 11:10:20;;;;;;;8.38;2.92;;;;;;;16.08;100.00;100492.81;5061856;28;20057;-52
2022/09/14 11:13:22;;;;;;;6.47;3.03;;;;;;;16.01;100.00;100492.44;5071892;28;20457;-55
2022/09/14 11:16:01;;;;;;;9.60;3.08;;;;;;;15.93;100.00;100490.47;5053946;28;20048;-49
2022/09/14 11:18:41;;;;;;;8.18;3.13;;;;;;;15.88;100.00;100491.38;5073405;28;20398;-50
2022/09/14 11:21:17;;;;;;;6.93;3.15;;;;;;;15.90;100.00;100491.91;5073001;28;20041;-52
2022/09/14 11:23:50;;;;;;;6.55;2.97;;;;;;;15.94;100.00;100492.06;5072908;28;20037;-50
2022/09/14 11:26:30;;;;;;;7.78;3.42;;;;;;;15.92;100.00;100489.66;5051887;28;20045;-54
2022/09/14 11:29:27;;;;;;;12.73;3.55;;;;;;;15.90;100.00;100491.09;5031516;28;20037;-50
2022/09/14 11:32:05;;;;;;;9.43;3.60;;;;;;;15.89;100.00;100489.44;5073135;28;20097;-53
2022/09/14 11:34:56;;;;;;;11.02;3.80;;;;;;;15.85;100.00;100488.44;5071673;28;20426;-50
2022/09/14 11:37:35;;;;;;;9.35;3.38;;;;;;;15.84;100.00;100484.06;5067831;28;20094;-53
2022/09/14 11:40:23;;;;;;;10.60;3.42;;;;;;;15.83;100.00;100491.50;5071652;28;20114;-51
2022/09/14 11:42:55;;;;;;;5.32;2.80;;;;;;;15.85;100.00;100482.94;5072514;28;20045;-52
2022/09/14 11:45:55;;;;;;;8.00;3.22;;;;;;;15.87;100.00;100486.19;5064743;28;20037;-52
2022/09/14 11:48:34;;;;;;;7.30;3.30;;;;;;;15.82;100.00;100476.13;5055640;28;20058;-49